Time;durP1;ratioP1;P1;durP2;ratioP2;P2;SDS_P1;SDS_P2;PMS_P1;PMS_P2;Temp;Humidity;BMP_temperature;BMP_pressure;BME280_temperature;BME280_humidity;BME280_pressure;Samples;Min_cycle;Max_cycle;Signal;HPM_P1;HPM_P2
2022/10/04 00:02:42;;;;;;;3.40;2.00;;;;;;;;;;10277506;28;20027;-76
2022/10/04 00:07:50;;;;;;;2.33;2.08;;;;;;;;;;10276340;28;20037;-79
2022/10/04 00:13:00;;;;;;;2.67;2.00;;;;;;;;;;10275469;28;20399;-76
2022/10/04 00:18:01;;;;;;;2.55;2.20;;;;;;;;;;10275972;28;20613;-73
2022/10/04 00:23:24;;;;;;;5.70;1.90;;;;;;;;;;10277565;28;20022;-76
2022/10/04 00:28:24;;;;;;;5.55;2.17;;;;;;;;;;10271058;28;20200;-74
2022/10/04 00:33:36;;;;;;;8.20;2.10;;;;;;;;;;10277678;28;20512;-79
2022/10/04 00:38:36;;;;;;;2.03;1.75;;;;;;;;;;10276419;28;20045;-77
2022/10/04 00:43:39;;;;;;;3.78;1.83;;;;;;;;;;10276132;28;20044;-77
2022/10/04 00:48:39;;;;;;;2.88;1.80;;;;;;;;;;10276009;28;20019;-78
2022/10/04 00:53:45;;;;;;;6.47;1.65;;;;;;;;;;10275620;28;20031;-76
2022/10/04 00:59:06;;;;;;;2.35;1.77;;;;;;;;;;10273717;28;20452;-74
2022/10/04 01:04:22;;;;;;;3.00;1.55;;;;;;;;;;10275748;28;20034;-78
2022/10/04 01:09:22;;;;;;;2.35;1.40;;;;;;;;;;10273923;28;20031;-79
2022/10/04 01:14:30;;;;;;;2.85;1.70;;;;;;;;;;10275469;28;20026;-74
2022/10/04 01:19:30;;;;;;;6.47;1.50;;;;;;;;;;10275014;28;20492;-76
2022/10/04 01:24:35;;;;;;;2.15;1.52;;;;;;;;;;10273266;28;20273;-79
2022/10/04 01:29:35;;;;;;;1.80;1.48;;;;;;;;;;10284700;28;20088;-77
2022/10/04 01:34:39;;;;;;;1.98;1.50;;;;;;;;;;10289436;28;20394;-77
2022/10/04 01:39:39;;;;;;;6.38;1.85;;;;;;;;;;10287685;28;20158;-76
2022/10/04 01:44:40;;;;;;;2.28;1.70;;;;;;;;;;10285710;28;20030;-78
2022/10/04 01:49:42;;;;;;;3.10;1.92;;;;;;;;;;10287374;28;20456;-73
2022/10/04 01:54:47;;;;;;;1.83;1.67;;;;;;;;;;10287037;28;20578;-78
2022/10/04 01:59:54;;;;;;;2.67;1.88;;;;;;;;;;10305862;28;20023;-73
2022/10/04 02:04:55;;;;;;;2.25;1.90;;;;;;;;;;10285729;28;20081;-76
2022/10/04 02:09:58;;;;;;;2.03;1.63;;;;;;;;;;10287150;28;20018;-78
2022/10/04 02:15:00;;;;;;;2.92;1.38;;;;;;;;;;10289348;28;20037;-78
2022/10/04 02:20:01;;;;;;;1.65;1.40;;;;;;;;;;10291059;28;20033;-77
2022/10/04 02:25:01;;;;;;;2.28;1.30;;;;;;;;;;10287454;28;20025;-78
2022/10/04 02:30:06;;;;;;;3.90;2.00;;;;;;;;;;10289609;28;20081;-72
2022/10/04 02:35:07;;;;;;;1.90;1.65;;;;;;;;;;10285642;28;20022;-76
2022/10/04 02:40:11;;;;;;;2.40;1.80;;;;;;;;;;10280329;28;20485;-75
2022/10/04 02:45:25;;;;;;;2.13;1.90;;;;;;;;;;10278543;28;20025;-76
2022/10/04 02:50:32;;;;;;;2.25;1.88;;;;;;;;;;10286813;28;20065;-78
2022/10/04 02:55:32;;;;;;;4.97;1.83;;;;;;;;;;10278923;28;20510;-73
2022/10/04 03:00:43;;;;;;;7.07;1.90;;;;;;;;;;10277159;28;20035;-74
2022/10/04 03:05:45;;;;;;;2.22;2.00;;;;;;;;;;10294619;28;20770;-77
2022/10/04 03:10:45;;;;;;;3.55;1.80;;;;;;;;;;10281692;28;20072;-72
2022/10/04 03:15:47;;;;;;;3.87;2.20;;;;;;;;;;10280597;28;20022;-76
2022/10/04 03:20:47;;;;;;;2.47;1.70;;;;;;;;;;10278646;28;20286;-76
2022/10/04 03:25:47;;;;;;;3.40;2.03;;;;;;;;;;10280116;28;20085;-76
2022/10/04 03:30:48;;;;;;;3.22;1.98;;;;;;;;;;10278561;28;20532;-77
2022/10/04 03:35:53;;;;;;;3.20;2.10;;;;;;;;;;10279132;28;20061;-75
2022/10/04 03:40:55;;;;;;;3.40;2.22;;;;;;;;;;10275584;28;20019;-78
2022/10/04 03:45:57;;;;;;;2.95;1.83;;;;;;;;;;10275750;28;20054;-77
2022/10/04 03:50:57;;;;;;;4.05;2.50;;;;;;;;;;10272987;28;20397;-78
2022/10/04 03:55:58;;;;;;;5.28;2.28;;;;;;;;;;10268803;28;20054;-74
2022/10/04 04:01:01;;;;;;;3.10;2.20;;;;;;;;;;10276394;28;20077;-79
2022/10/04 04:06:05;;;;;;;7.15;3.00;;;;;;;;;;10273977;28;20023;-73
2022/10/04 04:11:06;;;;;;;2.50;2.30;;;;;;;;;;10266856;28;20018;-76
2022/10/04 04:16:08;;;;;;;4.20;2.97;;;;;;;;;;10277077;28;20026;-77
2022/10/04 04:21:11;;;;;;;3.05;2.45;;;;;;;;;;10274777;28;20031;-74
2022/10/04 04:26:11;;;;;;;5.90;2.95;;;;;;;;;;10277041;28;20485;-75
2022/10/04 04:31:19;;;;;;;4.47;3.07;;;;;;;;;;10277054;28;20019;-76
2022/10/04 04:36:19;;;;;;;4.90;2.72;;;;;;;;;;10275955;28;20489;-79
2022/10/04 04:41:21;;;;;;;8.95;3.38;;;;;;;;;;10273778;28;20026;-73
2022/10/04 04:46:21;;;;;;;3.60;2.78;;;;;;;;;;10273385;28;20023;-78
2022/10/04 04:51:22;;;;;;;3.53;3.23;;;;;;;;;;10274151;28;20018;-72
2022/10/04 04:56:25;;;;;;;5.55;3.05;;;;;;;;;;10274233;28;20393;-79
2022/10/04 05:01:27;;;;;;;13.63;3.35;;;;;;;;;;10272520;28;20689;-74
2022/10/04 05:06:29;;;;;;;7.88;4.40;;;;;;;;;;10273245;28;20165;-77
2022/10/04 05:11:37;;;;;;;5.53;4.95;;;;;;;;;;10271279;28;20019;-74
2022/10/04 05:16:40;;;;;;;3.80;2.63;;;;;;;;;;10270914;28;20030;-78
2022/10/04 05:21:42;;;;;;;3.38;2.92;;;;;;;;;;10272853;28;20165;-75
2022/10/04 05:26:42;;;;;;;2.67;2.47;;;;;;;;;;10273344;28;20018;-73
2022/10/04 05:31:54;;;;;;;3.37;3.00;;;;;;;;;;10273930;28;20141;-73
2022/10/04 05:36:55;;;;;;;3.60;3.00;;;;;;;;;;10273462;28;20036;-76
2022/10/04 05:42:11;;;;;;;6.32;3.63;;;;;;;;;;10271738;28;20565;-73
2022/10/04 05:47:13;;;;;;;10.38;3.33;;;;;;;;;;10273770;28;20027;-77
2022/10/04 05:52:15;;;;;;;7.45;4.13;;;;;;;;;;10274083;28;20050;-78
2022/10/04 05:57:31;;;;;;;5.95;3.67;;;;;;;;;;10272630;28;20137;-73
2022/10/04 06:02:50;;;;;;;3.15;2.83;;;;;;;;;;10273612;28;20045;-77
2022/10/04 06:08:00;;;;;;;4.95;2.78;;;;;;;;;;10271783;28;20027;-73
2022/10/04 06:13:06;;;;;;;10.38;3.10;;;;;;;;;;10272153;28;20114;-77
2022/10/04 06:18:25;;;;;;;9.13;3.15;;;;;;;;;;10278859;28;20030;-77
2022/10/04 06:23:27;;;;;;;3.80;2.97;;;;;;;;;;10277737;28;20098;-74
2022/10/04 06:28:27;;;;;;;3.72;2.70;;;;;;;;;;10280462;28;20041;-78
2022/10/04 06:33:28;;;;;;;1.98;1.77;;;;;;;;;;10281055;28;20018;-77
2022/10/04 06:38:47;;;;;;;2.97;1.55;;;;;;;;;;10280797;28;20608;-80
2022/10/04 06:43:55;;;;;;;4.82;2.88;;;;;;;;;;10277857;28;20034;-74
2022/10/04 06:49:03;;;;;;;5.40;2.17;;;;;;;;;;10280208;28;20033;-78
2022/10/04 06:54:04;;;;;;;;;;;;;;;;;;10279235;28;20517;-78
2022/10/04 06:59:12;;;;;;;6.78;2.58;;;;;;;;;;10277968;28;19975;-77
2022/10/04 07:04:12;;;;;;;4.57;1.25;;;;;;;;;;10278588;28;20027;-74
2022/10/04 07:09:17;;;;;;;2.72;2.10;;;;;;;;;;10278951;28;20030;-78
2022/10/04 07:14:20;;;;;;;4.25;2.47;;;;;;;;;;10276156;28;20032;-76
2022/10/04 07:19:30;;;;;;;8.75;2.72;;;;;;;;;;10278881;28;20027;-80
2022/10/04 07:24:55;;;;;;;2.58;2.38;;;;;;;;;;10280561;28;20018;-79
2022/10/04 07:29:57;;;;;;;8.45;2.63;;;;;;;;;;10279118;28;20023;-78
2022/10/04 07:35:00;;;;;;;2.55;2.28;;;;;;;;;;10278974;28;20027;-79
2022/10/04 07:40:03;;;;;;;3.67;2.08;;;;;;;;;;10278141;28;20029;-79
2022/10/04 07:45:13;;;;;;;9.52;3.70;;;;;;;;;;10278532;28;20030;-77
2022/10/04 07:50:33;;;;;;;6.93;2.92;;;;;;;;;;10278265;28;20493;-76
2022/10/04 07:55:44;;;;;;;3.38;2.35;;;;;;;;;;10277197;28;20782;-76
2022/10/04 08:01:09;;;;;;;4.10;2.65;;;;;;;;;;10284753;28;20065;-80
2022/10/04 08:06:15;;;;;;;3.30;2.15;;;;;;;;;;10600798;23;20063;-79
2022/10/04 08:11:16;;;;;;;4.90;3.08;;;;;;;;;;10314245;28;20272;-76
2022/10/04 08:16:16;;;;;;;2.78;2.38;;;;;;;;;;10298887;28;20481;-73
2022/10/04 08:21:22;;;;;;;3.50;2.40;;;;;;;;;;10308978;28;20022;-79
2022/10/04 08:26:31;;;;;;;2.15;1.75;;;;;;;;;;10295119;28;20413;-78
2022/10/04 08:31:47;;;;;;;4.38;2.10;;;;;;;;;;10310603;28;20027;-74
2022/10/04 08:37:02;;;;;;;1.75;1.50;;;;;;;;;;10312483;28;20481;-77
2022/10/04 08:42:16;;;;;;;1.73;1.63;;;;;;;;;;10321811;28;20033;-77
2022/10/04 08:47:22;;;;;;;3.67;1.65;;;;;;;;;;10334557;28;20161;-75
2022/10/04 08:52:26;;;;;;;1.60;1.10;;;;;;;;;;10332034;28;20389;-77
2022/10/04 08:57:26;;;;;;;6.07;2.15;;;;;;;;;;10340465;28;20389;-76
2022/10/04 09:02:46;;;;;;;2.08;1.00;;;;;;;;;;10337273;28;20026;-74
2022/10/04 09:07:56;;;;;;;1.50;1.25;;;;;;;;;;10341017;28;20048;-75
2022/10/04 09:13:16;;;;;;;4.38;3.80;;;;;;;;;;10337309;28;20080;-75
2022/10/04 09:18:25;;;;;;;2.58;1.10;;;;;;;;;;10339646;28;20033;-76
2022/10/04 09:23:44;;;;;;;2.28;1.30;;;;;;;;;;10338767;28;20033;-78
2022/10/04 09:29:03;;;;;;;2.35;1.27;;;;;;;;;;10339710;28;20021;-76
2022/10/04 09:34:22;;;;;;;1.08;0.95;;;;;;;;;;10340616;28;20037;-78
2022/10/04 09:39:32;;;;;;;3.20;1.30;;;;;;;;;;10331151;28;20034;-79
2022/10/04 09:45:11;;;;;;;4.40;1.30;;;;;;;;;;10337315;28;20052;-73
2022/10/04 09:50:34;;;;;;;1.17;1.08;;;;;;;;;;10257810;28;20057;-73
2022/10/04 09:55:34;;;;;;;2.50;1.58;;;;;;;;;;10331693;28;20328;-73
2022/10/04 10:00:41;;;;;;;1.23;1.05;;;;;;;;;;10338753;28;20423;-76
2022/10/04 10:06:07;;;;;;;3.40;2.25;;;;;;;;;;10341770;28;20019;-73
2022/10/04 10:16:52;;;;;;;1.05;0.80;;;;;;;;;;10342227;28;20030;-75
2022/10/04 10:22:01;;;;;;;2.85;1.00;;;;;;;;;;10339437;28;20021;-77
2022/10/04 10:27:23;;;;;;;2.08;1.02;;;;;;;;;;10343067;28;20022;-79
2022/10/04 10:32:43;;;;;;;1.35;0.80;;;;;;;;;;10339053;28;20431;-76
2022/10/04 10:38:02;;;;;;;1.15;0.70;;;;;;;;;;10337172;28;20029;-78
2022/10/04 10:43:14;;;;;;;3.15;1.27;;;;;;;;;;10335732;28;20029;-77
2022/10/04 10:48:20;;;;;;;4.72;1.50;;;;;;;;;;10332804;28;20053;-76
2022/10/04 10:53:41;;;;;;;7.13;1.20;;;;;;;;;;10344773;28;20443;-76
2022/10/04 10:59:09;;;;;;;3.05;1.27;;;;;;;;;;10340528;28;20029;-79
2022/10/04 11:04:28;;;;;;;2.25;1.20;;;;;;;;;;10336593;28;20033;-78
2022/10/04 11:09:30;;;;;;;2.35;1.60;;;;;;;;;;10338238;28;20043;-78
2022/10/04 11:14:49;;;;;;;3.55;0.82;;;;;;;;;;10336643;28;20104;-72
2022/10/04 11:20:03;;;;;;;4.32;1.15;;;;;;;;;;10334359;28;20025;-77
2022/10/04 11:25:03;;;;;;;3.60;1.10;;;;;;;;;;10336892;28;20624;-72
2022/10/04 11:30:10;;;;;;;3.08;1.10;;;;;;;;;;10339718;28;20283;-74
2022/10/04 11:35:16;;;;;;;3.78;1.85;;;;;;;;;;10334276;28;20109;-78
2022/10/04 11:40:16;;;;;;;7.70;2.45;;;;;;;;;;10338228;28;20060;-73
2022/10/04 11:45:18;;;;;;;2.20;2.00;;;;;;;;;;10331132;28;20030;-79
2022/10/04 11:50:22;;;;;;;2.20;1.50;;;;;;;;;;10337025;28;20074;-73
2022/10/04 11:55:44;;;;;;;1.92;1.50;;;;;;;;;;10337328;28;20423;-73
2022/10/04 12:01:05;;;;;;;2.55;1.60;;;;;;;;;;10334305;28;20104;-76
2022/10/04 12:06:14;;;;;;;3.53;2.17;;;;;;;;;;10336016;28;20030;-76
2022/10/04 12:11:14;;;;;;;2.55;1.80;;;;;;;;;;10331720;28;20033;-73
2022/10/04 12:16:28;;;;;;;3.35;2.38;;;;;;;;;;10332885;28;20560;-77
2022/10/04 12:21:47;;;;;;;1.58;1.48;;;;;;;;;;10333974;28;20034;-73
2022/10/04 12:27:06;;;;;;;3.35;1.90;;;;;;;;;;10337975;28;20496;-75
2022/10/04 12:32:11;;;;;;;2.20;1.75;;;;;;;;;;10340716;28;20101;-73
2022/10/04 12:37:12;;;;;;;1.50;1.40;;;;;;;;;;10330036;28;20137;-76
2022/10/04 12:42:19;;;;;;;3.00;2.33;;;;;;;;;;10334154;28;20083;-74
2022/10/04 12:47:22;;;;;;;2.22;2.03;;;;;;;;;;10341965;28;20081;-73
2022/10/04 12:52:26;;;;;;;3.47;2.15;;;;;;;;;;10333940;28;20026;-73
2022/10/04 12:57:36;;;;;;;7.72;2.58;;;;;;;;;;10334066;28;20069;-74
2022/10/04 13:02:39;;;;;;;2.22;1.60;;;;;;;;;;10334133;28;20060;-76
2022/10/04 13:07:43;;;;;;;3.00;2.03;;;;;;;;;;10331066;28;20061;-73
2022/10/04 13:13:22;;;;;;;3.33;2.38;;;;;;;;;;10338072;28;20630;-76
2022/10/04 13:18:41;;;;;;;4.15;3.17;;;;;;;;;;10198377;28;20039;-76
2022/10/04 13:23:41;;;;;;;3.53;2.10;;;;;;;;;;10304998;28;20234;-74
2022/10/04 13:28:45;;;;;;;3.40;2.38;;;;;;;;;;10331945;28;20022;-77
2022/10/04 13:33:51;;;;;;;3.08;2.78;;;;;;;;;;10336062;28;20099;-73
2022/10/04 13:38:51;;;;;;;4.15;2.40;;;;;;;;;;10332593;28;20033;-74
2022/10/04 13:44:06;;;;;;;2.83;2.42;;;;;;;;;;10333350;28;20484;-77
2022/10/04 13:49:19;;;;;;;4.00;2.25;;;;;;;;;;10332283;28;20395;-73
2022/10/04 14:00:01;;;;;;;4.25;3.03;;;;;;;;;;10334385;28;20045;-72
2022/10/04 14:05:21;;;;;;;3.83;3.08;;;;;;;;;;10333904;28;20108;-72
2022/10/04 14:10:40;;;;;;;7.63;3.35;;;;;;;;;;10334334;28;20108;-72
2022/10/04 14:15:43;;;;;;;6.63;3.40;;;;;;;;;;10336113;28;20053;-76
2022/10/04 14:20:56;;;;;;;3.70;2.92;;;;;;;;;;10329986;28;20061;-77
2022/10/04 14:26:15;;;;;;;6.13;3.15;;;;;;;;;;10332153;28;20491;-74
2022/10/04 14:31:28;;;;;;;3.20;2.85;;;;;;;;;;10337153;28;20026;-73
2022/10/04 14:36:47;;;;;;;4.63;3.03;;;;;;;;;;10332124;28;20773;-74
2022/10/04 14:41:57;;;;;;;7.95;3.75;;;;;;;;;;10336489;28;20524;-77
2022/10/04 14:47:00;;;;;;;8.52;3.72;;;;;;;;;;10339710;28;20063;-74
2022/10/04 14:52:03;;;;;;;5.22;3.45;;;;;;;;;;10338167;28;20026;-77
2022/10/04 14:57:36;;;;;;;4.25;3.30;;;;;;;;;;10340653;28;20026;-76
2022/10/04 15:02:36;;;;;;;6.32;3.67;;;;;;;;;;10313135;28;20074;-73
2022/10/04 15:07:38;;;;;;;5.90;3.28;;;;;;;;;;10336172;28;20598;-75
2022/10/04 15:12:54;;;;;;;4.03;3.25;;;;;;;;;;10336859;28;20097;-79
2022/10/04 15:17:58;;;;;;;13.40;3.97;;;;;;;;;;10337001;28;20026;-77
2022/10/04 15:23:09;;;;;;;4.88;3.90;;;;;;;;;;10339685;28;20084;-79
2022/10/04 15:28:26;;;;;;;13.93;4.15;;;;;;;;;;10336026;28;20444;-74
2022/10/04 15:33:46;;;;;;;243.18;224.27;;;;;;;;;;10335333;28;20050;-80
2022/10/04 15:39:00;;;;;;;204.40;189.88;;;;;;;;;;10327046;28;20500;-73
2022/10/04 15:44:11;;;;;;;4.93;3.53;;;;;;;;;;10340778;28;20389;-73
2022/10/04 15:49:11;;;;;;;7.70;3.47;;;;;;;;;;10336502;28;20086;-73
2022/10/04 15:54:18;;;;;;;10.00;3.92;;;;;;;;;;10333835;28;20592;-74
2022/10/04 15:59:21;;;;;;;10.05;4.45;;;;;;;;;;10331237;28;20034;-77
2022/10/04 16:04:31;;;;;;;12.73;5.28;;;;;;;;;;10338084;28;20554;-78
2022/10/04 16:09:36;;;;;;;8.60;4.68;;;;;;;;;;10333835;28;20138;-78
2022/10/04 16:14:55;;;;;;;9.65;4.80;;;;;;;;;;10334913;28;20030;-74
2022/10/04 16:20:08;;;;;;;10.90;4.28;;;;;;;;;;10334107;28;20053;-78
2022/10/04 16:25:24;;;;;;;6.80;4.97;;;;;;;;;;10350834;23;20342;-73
2022/10/04 16:30:27;;;;;;;6.35;4.22;;;;;;;;;;10253853;28;20045;-73
2022/10/04 16:35:30;;;;;;;5.13;3.90;;;;;;;;;;10274664;28;20035;-74
2022/10/04 16:40:45;;;;;;;6.38;4.13;;;;;;;;;;10256960;28;20023;-75
2022/10/04 16:45:52;;;;;;;7.15;4.50;;;;;;;;;;10236029;28;20596;-72
2022/10/04 16:50:59;;;;;;;9.32;5.03;;;;;;;;;;10318114;23;20128;-74
2022/10/04 16:56:11;;;;;;;7.35;4.38;;;;;;;;;;10308308;28;20483;-73
2022/10/04 17:01:31;;;;;;;6.43;4.60;;;;;;;;;;10311070;28;20021;-76
2022/10/04 17:06:42;;;;;;;5.03;3.95;;;;;;;;;;10307841;28;20150;-74
2022/10/04 17:11:44;;;;;;;6.53;4.57;;;;;;;;;;10309997;28;20027;-74
2022/10/04 17:16:47;;;;;;;7.38;4.45;;;;;;;;;;10312071;28;20026;-78
2022/10/04 17:21:54;;;;;;;4.90;3.83;;;;;;;;;;10308285;28;20030;-77
2022/10/04 17:27:14;;;;;;;11.30;4.43;;;;;;;;;;10309236;28;20472;-72
2022/10/04 17:32:26;;;;;;;6.22;3.92;;;;;;;;;;10302004;28;20018;-74
2022/10/04 17:37:52;;;;;;;14.70;4.80;;;;;;;;;;10305114;28;20029;-78
2022/10/04 17:43:05;;;;;;;9.00;4.30;;;;;;;;;;10302461;28;20038;-77
2022/10/04 17:58:54;;;;;;;6.55;4.07;;;;;;;;;;10293853;28;20105;-76
2022/10/04 18:04:12;;;;;;;7.07;4.10;;;;;;;;;;10299826;28;20026;-74
2022/10/04 18:09:31;;;;;;;10.57;4.83;;;;;;;;;;10294517;28;20030;-73
2022/10/04 18:14:35;;;;;;;7.25;4.55;;;;;;;;;;10314614;28;20026;-73
2022/10/04 18:19:49;;;;;;;8.50;4.10;;;;;;;;;;10319611;28;20034;-77
2022/10/04 18:25:12;;;;;;;10.63;4.28;;;;;;;;;;10320223;28;20038;-77
2022/10/04 18:30:14;;;;;;;8.23;3.78;;;;;;;;;;10317239;28;20121;-77
2022/10/04 18:35:21;;;;;;;4.82;4.07;;;;;;;;;;10316827;28;20503;-72
2022/10/04 18:40:27;;;;;;;7.20;4.20;;;;;;;;;;10317313;28;20034;-73
2022/10/04 18:45:28;;;;;;;6.68;4.20;;;;;;;;;;10302670;28;20120;-74
2022/10/04 18:50:34;;;;;;;9.82;4.70;;;;;;;;;;10319940;28;20050;-73
2022/10/04 18:55:49;;;;;;;7.70;4.57;;;;;;;;;;10318257;28;20038;-74
2022/10/04 19:06:28;;;;;;;9.65;4.35;;;;;;;;;;10321846;28;20030;-75
2022/10/04 19:11:40;;;;;;;5.35;3.13;;;;;;;;;;10314616;28;20030;-74
2022/10/04 19:16:55;;;;;;;6.47;3.10;;;;;;;;;;10314986;28;20030;-73
2022/10/04 19:22:02;;;;;;;6.95;4.15;;;;;;;;;;10312462;28;20034;-74
2022/10/04 19:27:26;;;;;;;6.25;4.30;;;;;;;;;;10315006;28;20534;-74
2022/10/04 19:32:26;;;;;;;5.70;4.40;;;;;;;;;;10327102;28;20432;-75
2022/10/04 19:37:30;;;;;;;8.05;4.30;;;;;;;;;;10316156;28;20030;-73
2022/10/04 19:42:46;;;;;;;11.75;5.07;;;;;;;;;;10314609;28;20037;-77
2022/10/04 19:47:49;;;;;;;8.57;4.97;;;;;;;;;;10316259;28;20094;-75
2022/10/04 19:52:52;;;;;;;6.15;4.57;;;;;;;;;;10320119;28;20027;-74
2022/10/04 19:57:57;;;;;;;6.82;3.50;;;;;;;;;;10314784;28;20030;-74
2022/10/04 20:02:57;;;;;;;6.22;4.20;;;;;;;;;;10314974;28;20057;-78
2022/10/04 20:08:03;;;;;;;8.10;4.30;;;;;;;;;;10317466;28;20129;-74
2022/10/04 20:13:15;;;;;;;10.23;4.30;;;;;;;;;;10318047;28;20050;-74
2022/10/04 20:18:31;;;;;;;7.80;4.35;;;;;;;;;;10316268;28;20030;-74
2022/10/04 20:23:37;;;;;;;5.68;4.10;;;;;;;;;;10317049;28;20125;-74
2022/10/04 20:28:40;;;;;;;11.40;3.95;;;;;;;;;;10317199;28;20030;-73
2022/10/04 20:33:41;;;;;;;10.45;4.13;;;;;;;;;;10316236;28;20077;-74
2022/10/04 20:38:58;;;;;;;6.25;3.97;;;;;;;;;;10316386;28;20173;-77
2022/10/04 20:44:05;;;;;;;10.88;3.78;;;;;;;;;;10314407;28;20218;-79
2022/10/04 20:49:14;;;;;;;6.30;4.30;;;;;;;;;;10317330;28;20053;-74
2022/10/04 20:54:18;;;;;;;7.13;3.53;;;;;;;;;;10314020;28;20030;-74
2022/10/04 20:59:20;;;;;;;8.73;4.05;;;;;;;;;;10320669;28;20080;-74
2022/10/04 21:09:35;;;;;;;6.45;4.50;;;;;;;;;;10320358;28;20516;-79
2022/10/04 21:14:36;;;;;;;8.68;5.22;;;;;;;;;;10321812;28;20026;-75
2022/10/04 21:19:41;;;;;;;7.20;5.18;;;;;;;;;;10322881;28;20030;-72
2022/10/04 21:24:51;;;;;;;10.90;4.93;;;;;;;;;;10318589;28;20022;-74
2022/10/04 21:29:52;;;;;;;9.27;4.50;;;;;;;;;;10318507;28;20010;-74
2022/10/04 21:34:52;;;;;;;5.07;4.30;;;;;;;;;;10320226;28;20520;-78
2022/10/04 21:39:53;;;;;;;7.45;4.35;;;;;;;;;;10320857;28;20034;-77
2022/10/04 21:44:53;;;;;;;6.03;3.90;;;;;;;;;;10323328;28;20117;-77
2022/10/04 21:49:54;;;;;;;5.77;4.40;;;;;;;;;;10325388;28;20050;-77
2022/10/04 21:54:54;;;;;;;5.80;4.38;;;;;;;;;;10328879;28;20018;-77
2022/10/04 21:59:54;;;;;;;4.47;4.07;;;;;;;;;;10328694;28;20032;-75
2022/10/04 22:04:54;;;;;;;12.32;5.03;;;;;;;;;;10327641;28;20025;-78
2022/10/04 22:09:54;;;;;;;11.35;4.32;;;;;;;;;;10327460;28;20022;-77
2022/10/04 22:14:55;;;;;;;6.28;4.45;;;;;;;;;;10327851;28;20416;-74
2022/10/04 22:19:55;;;;;;;5.43;4.20;;;;;;;;;;10326889;28;20024;-73
2022/10/04 22:24:56;;;;;;;5.32;3.97;;;;;;;;;;10326443;28;20033;-73
2022/10/04 22:29:56;;;;;;;5.78;4.03;;;;;;;;;;10326474;28;20563;-73
2022/10/04 22:34:58;;;;;;;4.82;3.90;;;;;;;;;;10325266;28;20026;-73
2022/10/04 22:39:59;;;;;;;11.70;4.40;;;;;;;;;;10324024;28;20437;-74
2022/10/04 22:45:05;;;;;;;11.57;4.28;;;;;;;;;;10325079;28;20023;-77
2022/10/04 22:50:11;;;;;;;5.85;4.00;;;;;;;;;;10321989;28;20050;-77
2022/10/04 22:55:16;;;;;;;7.93;4.85;;;;;;;;;;10324349;28;20064;-72
2022/10/04 23:00:16;;;;;;;6.10;4.38;;;;;;;;;;10294724;23;20421;-75
2022/10/04 23:05:17;;;;;;;7.47;4.90;;;;;;;;;;10247571;28;20020;-74
2022/10/04 23:10:18;;;;;;;6.40;4.63;;;;;;;;;;10228773;28;20023;-74
2022/10/04 23:15:19;;;;;;;10.70;5.95;;;;;;;;;;10245068;28;20031;-74
2022/10/04 23:20:20;;;;;;;12.45;6.28;;;;;;;;;;10244019;28;20434;-75
2022/10/04 23:25:20;;;;;;;9.82;5.65;;;;;;;;;;10244901;28;20019;-77
2022/10/04 23:30:21;;;;;;;8.70;5.38;;;;;;;;;;10243638;28;20102;-77
2022/10/04 23:35:28;;;;;;;9.20;4.60;;;;;;;;;;10245433;28;20026;-76
2022/10/04 23:40:29;;;;;;;6.40;4.57;;;;;;;;;;10243226;28;20019;-75
2022/10/04 23:45:29;;;;;;;7.53;5.47;;;;;;;;;;10257105;28;20038;-77
2022/10/04 23:50:34;;;;;;;6.67;4.77;;;;;;;;;;10242913;28;20023;-74
2022/10/04 23:55:37;;;;;;;7.20;4.45;;;;;;;;;;10242942;28;21150;-75
